Time;durP1;ratioP1;P1;durP2;ratioP2;P2;SDS_P1;SDS_P2;PMS_P1;PMS_P2;Temp;Humidity;BMP_temperature;BMP_pressure;BME280_temperature;BME280_humidity;BME280_pressure;Samples;Min_cycle;Max_cycle;Signal;HPM_P1;HPM_P2
2024/04/06 00:00:31;;;;;;;12.10;5.00;;;;;;;12.86;70.21;99675.46;102738;1264;138730;-75
2024/04/06 00:03:17;;;;;;;12.60;5.60;;;;;;;12.90;70.38;99671.73;102770;1267;108063;-75
2024/04/06 00:05:44;;;;;;;8.20;4.20;;;;;;;12.95;70.32;99672.05;102642;1272;139029;-75
2024/04/06 00:08:10;;;;;;;13.20;5.00;;;;;;;13.01;70.39;99673.97;102757;1263;107412;-74
2024/04/06 00:10:43;;;;;;;10.40;4.50;;;;;;;13.09;70.75;99674.61;102805;1266;99198;-73
2024/04/06 00:13:10;;;;;;;13.40;4.90;;;;;;;13.14;71.25;99668.45;102491;1266;138842;-73
2024/04/06 00:15:37;;;;;;;9.40;4.20;;;;;;;13.24;71.86;99672.48;102688;1264;107722;-75
2024/04/06 00:18:06;;;;;;;13.70;4.60;;;;;;;13.28;72.71;99665.80;102444;1264;139117;-75
2024/04/06 00:20:34;;;;;;;7.90;4.00;;;;;;;13.33;73.43;99661.38;102573;1266;107094;-75
2024/04/06 00:23:01;;;;;;;11.70;4.50;;;;;;;13.35;73.86;99665.30;102588;1264;99155;-75
2024/04/06 00:25:28;;;;;;;9.30;3.50;;;;;;;13.35;74.69;99676.80;101762;1266;1003496;-75
2024/04/06 00:27:54;;;;;;;9.10;3.60;;;;;;;13.34;74.98;99678.26;102713;1264;108803;-76
2024/04/06 00:30:19;;;;;;;;;;;;;;;13.33;75.34;99684.61;102725;1263;140120;-74
2024/04/06 00:32:45;;;;;;;10.20;4.20;;;;;;;13.27;75.87;99683.30;102812;1267;109454;-74
2024/04/06 00:35:12;;;;;;;9.50;3.90;;;;;;;13.24;76.38;99687.13;102813;1264;99184;-73
2024/04/06 00:37:39;;;;;;;11.10;3.70;;;;;;;13.20;76.60;99685.61;102823;1263;111928;-74
2024/04/06 00:40:08;;;;;;;14.30;4.30;;;;;;;13.16;77.22;99677.42;102777;1263;108134;-73
2024/04/06 00:42:35;;;;;;;10.60;4.30;;;;;;;13.08;77.45;99682.19;102853;1267;139628;-74
2024/04/06 00:45:01;;;;;;;9.80;4.60;;;;;;;13.02;77.89;99691.40;102801;1266;109631;-74
2024/04/06 00:47:28;;;;;;;12.00;4.40;;;;;;;12.94;78.30;99688.11;102703;1266;138891;-74
2024/04/06 00:49:55;;;;;;;11.40;4.40;;;;;;;12.88;79.01;99693.31;102838;1266;112650;-75
2024/04/06 00:52:21;;;;;;;10.20;4.80;;;;;;;12.83;79.40;99696.73;102799;1262;107565;-73
2024/04/06 00:54:48;;;;;;;13.70;5.10;;;;;;;12.80;79.84;99698.98;102709;1266;138999;-75
2024/04/06 00:57:14;;;;;;;14.10;5.30;;;;;;;12.73;80.54;99690.42;102760;1262;108222;-75
2024/04/06 00:59:41;;;;;;;9.60;4.80;;;;;;;12.65;80.70;99701.11;102514;1275;139183;-74
2024/04/06 01:02:07;;;;;;;13.10;5.30;;;;;;;12.57;81.17;99708.46;102680;1267;114446;-75
2024/04/06 01:04:34;;;;;;;12.90;5.10;;;;;;;12.55;81.65;99716.03;102691;1263;108962;-75
2024/04/06 01:07:01;;;;;;;13.90;6.10;;;;;;;12.52;82.13;99717.25;102704;1264;138900;-75
2024/04/06 01:09:26;;;;;;;;;;;;;;;12.50;82.67;99726.41;102739;1264;107689;-75
2024/04/06 01:11:52;;;;;;;11.30;5.50;;;;;;;12.46;83.27;99725.04;102612;1263;125314;-74
2024/04/06 01:14:18;;;;;;;;;;;;;;;12.45;84.07;99724.95;102798;1264;113628;-75
2024/04/06 01:16:44;;;;;;;13.90;5.90;;;;;;;12.41;84.47;99727.39;102734;1264;107235;-76
2024/04/06 01:19:48;;;;;;;10.90;5.80;;;;;;;12.37;84.72;99726.54;103552;1263;139699;-74
2024/04/06 01:22:49;;;;;;;10.50;5.70;;;;;;;12.32;85.21;99728.33;102604;1264;107262;-74
2024/04/06 01:25:50;;;;;;;12.60;5.80;;;;;;;12.27;85.54;99712.36;102534;1266;138751;-75
2024/04/06 01:28:51;;;;;;;12.10;5.50;;;;;;;12.23;85.65;99713.59;102669;1264;113015;-75
2024/04/06 01:31:52;;;;;;;11.00;5.70;;;;;;;12.21;86.15;99701.50;102617;1263;108413;-75
2024/04/06 01:34:53;;;;;;;11.20;5.60;;;;;;;12.10;86.67;99684.58;102697;1271;100307;-75
2024/04/06 01:37:54;;;;;;;13.90;6.20;;;;;;;12.01;86.81;99670.36;101960;1266;1002476;-75
2024/04/06 01:40:55;;;;;;;11.10;6.30;;;;;;;11.93;87.18;99658.20;102792;1267;99156;-75
2024/04/06 01:43:56;;;;;;;13.60;5.70;;;;;;;11.86;88.02;99649.64;102803;1264;113022;-74
2024/04/06 01:46:57;;;;;;;13.30;6.10;;;;;;;11.82;88.34;99645.30;102031;1267;1003386;-75
2024/04/06 01:49:58;;;;;;;13.50;6.30;;;;;;;11.79;89.04;99663.73;102811;1264;99684;-76
2024/04/06 01:52:59;;;;;;;12.50;6.10;;;;;;;11.75;89.67;99667.54;102765;1264;109677;-75
2024/04/06 01:56:00;;;;;;;9.80;6.00;;;;;;;11.72;90.48;99660.90;102659;1267;99691;-75
2024/04/06 01:59:01;;;;;;;12.90;6.40;;;;;;;11.68;91.28;99652.20;102792;1266;111602;-76
2024/04/06 02:02:02;;;;;;;11.90;6.30;;;;;;;11.66;91.82;99648.30;102677;1267;109487;-76
2024/04/06 02:05:03;;;;;;;10.60;6.00;;;;;;;11.62;92.40;99649.48;102690;1264;99222;-76
2024/04/06 02:08:05;;;;;;;13.40;5.80;;;;;;;11.62;92.87;99656.51;102740;1264;108679;-75
2024/04/06 02:11:05;;;;;;;10.20;5.70;;;;;;;11.60;93.19;99657.81;102697;1263;99212;-76
2024/04/06 02:14:06;;;;;;;12.70;6.10;;;;;;;11.53;93.33;99643.14;102654;1266;114658;-76
2024/04/06 02:17:07;;;;;;;11.30;5.40;;;;;;;11.62;93.49;99664.65;102674;1266;107752;-76
2024/04/06 02:20:09;;;;;;;11.30;5.20;;;;;;;11.64;93.75;99665.25;102271;1262;1002486;-76
2024/04/06 02:23:09;;;;;;;11.20;6.40;;;;;;;11.67;93.99;99665.66;102783;1266;107835;-77
2024/04/06 02:26:10;;;;;;;8.90;6.50;;;;;;;11.68;94.47;99661.44;102873;1264;97813;-76
2024/04/06 02:29:11;;;;;;;9.20;5.80;;;;;;;11.70;94.84;99663.80;102792;1263;113001;-77
2024/04/06 02:31:59;;;;;;;9.70;5.80;;;;;;;11.72;94.91;99665.98;102827;1263;138739;-76
2024/04/06 02:34:59;;;;;;;8.90;5.60;;;;;;;11.73;95.02;99664.66;102762;1260;99196;-78
2024/04/06 02:38:00;;;;;;;9.50;5.40;;;;;;;11.76;95.36;99670.11;102765;1264;137725;-76
2024/04/06 02:41:02;;;;;;;9.50;5.40;;;;;;;11.78;95.39;99673.70;103022;1263;99244;-76
2024/04/06 02:44:03;;;;;;;7.30;5.40;;;;;;;11.81;95.54;99674.97;102830;1267;137367;-76
2024/04/06 02:47:04;;;;;;;8.80;5.30;;;;;;;11.85;95.61;99676.18;102834;1262;106830;-74
2024/04/06 02:50:05;;;;;;;8.20;4.90;;;;;;;11.90;95.62;99677.16;102678;1262;138610;-75
2024/04/06 02:53:06;;;;;;;8.40;5.10;;;;;;;11.95;95.45;99677.59;102803;1264;108280;-73
2024/04/06 02:56:07;;;;;;;7.60;5.40;;;;;;;12.00;95.50;99682.09;102484;1267;138757;-74
2024/04/06 02:59:08;;;;;;;9.10;4.90;;;;;;;12.07;95.22;99684.70;102797;1266;112422;-75
2024/04/06 03:02:10;;;;;;;8.30;5.10;;;;;;;12.11;95.31;99688.71;102696;1264;138773;-75
2024/04/06 03:05:10;;;;;;;11.90;5.50;;;;;;;12.14;95.11;99688.41;102789;1263;99690;-74
2024/04/06 03:08:11;;;;;;;7.40;4.70;;;;;;;12.17;94.97;99689.33;102737;1262;108817;-75
2024/04/06 03:11:12;;;;;;;8.90;5.30;;;;;;;12.16;94.92;99697.71;102809;1262;99176;-74
2024/04/06 03:14:13;;;;;;;6.10;4.00;;;;;;;12.16;94.83;99692.30;103141;1262;112577;-75
2024/04/06 03:17:14;;;;;;;9.70;4.30;;;;;;;12.16;94.53;99692.83;102693;1262;106536;-73
2024/04/06 03:20:16;;;;;;;7.20;4.00;;;;;;;12.16;94.48;99695.27;103513;1263;99698;-74
2024/04/06 03:23:17;;;;;;;5.80;4.30;;;;;;;12.16;94.40;99696.86;103001;1266;107717;-75
2024/04/06 03:26:18;;;;;;;9.20;4.40;;;;;;;12.14;94.14;99697.13;102766;1262;99203;-74
2024/04/06 03:29:19;;;;;;;9.30;4.30;;;;;;;12.11;94.06;99700.56;103084;1262;112158;-75
2024/04/06 03:32:20;;;;;;;7.90;3.60;;;;;;;12.07;93.97;99706.13;102624;1266;108297;-76
2024/04/06 03:35:21;;;;;;;9.50;4.10;;;;;;;12.05;93.83;99707.98;102596;1263;99074;-75
2024/04/06 03:38:22;;;;;;;8.10;4.00;;;;;;;12.02;93.79;99712.99;103180;1261;109357;-74
2024/04/06 03:41:23;;;;;;;7.70;4.20;;;;;;;11.99;93.73;99721.66;102766;1262;99825;-76
2024/04/06 03:44:24;;;;;;;9.30;4.00;;;;;;;11.92;93.62;99715.05;102716;1262;114921;-75
2024/04/06 03:47:27;;;;;;;6.50;3.70;;;;;;;11.89;93.72;99718.67;102651;1261;106665;-74
2024/04/06 03:50:28;;;;;;;7.30;3.80;;;;;;;11.86;93.80;99725.09;102685;1264;99562;-76
2024/04/06 03:53:41;;;;;;;9.20;4.60;;;;;;;11.82;93.87;99726.29;102611;1262;108842;-74
2024/04/06 03:56:42;;;;;;;6.60;4.30;;;;;;;11.79;94.03;99725.02;103113;1261;99280;-75
2024/04/06 03:59:43;;;;;;;6.90;3.70;;;;;;;11.76;94.05;99731.92;102785;1263;113680;-75
2024/04/06 04:02:45;;;;;;;6.90;4.20;;;;;;;11.72;94.07;99735.29;102829;1264;106821;-76
2024/04/06 04:05:46;;;;;;;7.40;4.10;;;;;;;11.68;94.21;99742.61;102689;1262;99718;-75
2024/04/06 04:08:47;;;;;;;8.40;4.10;;;;;;;11.63;94.34;99745.61;102780;1266;106020;-75
2024/04/06 04:11:48;;;;;;;9.40;4.50;;;;;;;11.58;94.39;99746.00;102872;1266;97709;-73
2024/04/06 04:14:49;;;;;;;9.00;4.40;;;;;;;11.56;94.66;99742.59;102565;1262;112626;-75
2024/04/06 04:17:50;;;;;;;8.80;4.20;;;;;;;11.54;94.85;99753.17;102762;1262;107939;-75
2024/04/06 04:20:51;;;;;;;9.90;4.30;;;;;;;11.50;94.81;99760.45;103057;1267;97689;-75
2024/04/06 04:23:52;;;;;;;7.70;4.40;;;;;;;11.49;95.11;99770.94;102966;1262;106890;-75
2024/04/06 04:26:53;;;;;;;7.20;4.30;;;;;;;11.97;95.72;99775.42;102914;1262;99220;-75
2024/04/06 04:29:54;;;;;;;8.20;3.60;;;;;;;13.02;94.94;99778.66;102853;1262;113159;-75
2024/04/06 04:32:55;;;;;;;6.80;3.40;;;;;;;14.10;92.37;99774.27;102770;1262;108576;-74
2024/04/06 04:35:56;;;;;;;6.50;3.30;;;;;;;15.23;89.53;99783.65;103131;1262;99075;-75
2024/04/06 04:38:57;;;;;;;6.70;3.30;;;;;;;16.35;85.61;99788.63;102910;1262;107207;-74
2024/04/06 04:41:59;;;;;;;6.50;3.20;;;;;;;17.42;82.54;99791.98;102840;1260;99150;-75
2024/04/06 04:45:00;;;;;;;4.90;2.70;;;;;;;18.49;78.75;99795.38;102968;1262;111858;-75
2024/04/06 04:48:01;;;;;;;4.30;2.90;;;;;;;19.45;76.05;99799.20;102720;1264;106704;-75
2024/04/06 04:51:02;;;;;;;4.80;2.80;;;;;;;20.41;72.81;99798.65;102773;1266;99362;-75
2024/04/06 04:54:03;;;;;;;4.60;2.30;;;;;;;21.46;70.18;99796.88;102635;1266;108852;-75
2024/04/06 04:57:04;;;;;;;6.00;2.40;;;;;;;22.52;67.36;99800.31;102745;1261;99171;-75
2024/04/06 05:00:07;;;;;;;5.50;2.80;;;;;;;23.46;63.88;99802.35;102770;1264;112150;-75
2024/04/06 05:03:08;;;;;;;5.20;2.60;;;;;;;24.35;61.19;99805.29;102712;1261;107580;-75
2024/04/06 05:06:08;;;;;;;4.70;2.20;;;;;;;25.14;58.78;99817.63;102881;1267;99076;-74
2024/04/06 05:09:10;;;;;;;6.10;2.40;;;;;;;25.83;55.76;99813.58;102761;1264;108988;-74
2024/04/06 05:12:10;;;;;;;5.90;2.40;;;;;;;26.62;54.33;99815.98;102789;1267;99069;-74
2024/04/06 05:15:11;;;;;;;3.40;2.20;;;;;;;27.22;50.96;99823.98;102773;1262;113121;-75
2024/04/06 05:18:13;;;;;;;4.50;2.40;;;;;;;27.67;50.20;99830.48;102758;1267;107510;-75
2024/04/06 05:21:14;;;;;;;4.80;2.40;;;;;;;28.20;48.64;99829.55;95272;1266;10218306;-75
2024/04/06 05:24:15;;;;;;;4.40;2.30;;;;;;;28.50;47.56;99832.28;102799;1262;99282;-75
2024/04/06 05:27:16;;;;;;;4.50;2.30;;;;;;;29.10;46.14;99834.33;102824;1266;112602;-76
2024/04/06 05:30:18;;;;;;;7.20;2.20;;;;;;;29.56;44.72;99837.14;102846;1262;106900;-75
2024/04/06 05:33:19;;;;;;;3.90;2.30;;;;;;;30.27;44.13;99841.10;102703;1262;99238;-76
2024/04/06 05:36:20;;;;;;;3.70;2.20;;;;;;;30.80;42.59;99840.52;102694;1262;108041;-75
2024/04/06 05:39:21;;;;;;;4.30;2.20;;;;;;;31.23;41.89;99840.11;102643;1262;99162;-76
2024/04/06 05:42:22;;;;;;;5.40;2.60;;;;;;;31.81;41.01;99842.20;102773;1262;105287;-74
2024/04/06 05:45:23;;;;;;;5.60;2.30;;;;;;;32.34;39.47;99843.23;102585;1262;99935;-75
2024/04/06 05:48:24;;;;;;;5.20;2.30;;;;;;;32.67;38.42;99846.21;102617;1267;99184;-75
2024/04/06 05:51:25;;;;;;;5.30;2.50;;;;;;;33.17;37.76;99857.30;102783;1262;100080;-74
2024/04/06 05:54:26;;;;;;;3.90;2.40;;;;;;;33.68;36.50;99860.95;102704;1262;99073;-75
2024/04/06 05:57:27;;;;;;;5.50;2.40;;;;;;;33.98;35.84;99864.73;102585;1266;104072;-76
2024/04/06 06:00:28;;;;;;;3.00;2.10;;;;;;;34.44;35.42;99864.58;102654;1262;99988;-74
2024/04/06 06:03:29;;;;;;;3.90;2.20;;;;;;;34.92;34.76;99866.64;102518;1266;99141;-76
2024/04/06 06:06:30;;;;;;;4.70;2.60;;;;;;;35.16;33.53;99867.71;102661;1262;99253;-74
2024/04/06 06:09:31;;;;;;;4.60;2.00;;;;;;;35.47;33.09;99872.23;102737;1262;99119;-66
2024/04/06 06:12:32;;;;;;;4.70;3.00;;;;;;;35.83;32.37;99874.77;102780;1262;105206;-63
2024/04/06 06:15:34;;;;;;;11.60;8.00;;;;;;;36.19;31.74;99873.52;102808;1262;99824;-63
2024/04/06 06:18:35;;;;;;;7.40;4.50;;;;;;;36.57;30.84;99873.44;102889;1262;99282;-63
2024/04/06 06:21:37;;;;;;;5.70;2.80;;;;;;;36.62;30.03;99883.94;102921;1262;99522;-64
2024/04/06 06:24:38;;;;;;;6.10;2.70;;;;;;;36.84;30.23;99889.27;102783;1262;99193;-63
2024/04/06 06:27:39;;;;;;;9.10;5.20;;;;;;;37.18;29.21;99887.99;102757;1266;104385;-63
2024/04/06 06:30:40;;;;;;;5.00;3.20;;;;;;;37.00;29.37;99888.38;102711;1262;99939;-63
2024/04/06 06:33:41;;;;;;;5.50;2.70;;;;;;;37.27;28.99;99895.52;102769;1262;99277;-63
2024/04/06 06:36:43;;;;;;;5.20;2.90;;;;;;;36.56;28.60;99901.19;102851;1262;100638;-63
2024/04/06 06:39:47;;;;;;;6.70;3.20;;;;;;;36.02;28.78;99903.70;102751;1262;99295;-63
2024/04/06 06:42:51;;;;;;;5.10;3.00;;;;;;;35.94;28.82;99900.61;102920;1262;104619;-59
2024/04/06 06:45:52;;;;;;;6.70;3.50;;;;;;;36.08;28.72;99898.21;102736;1262;100170;-61
2024/04/06 06:48:53;;;;;;;7.30;3.60;;;;;;;36.41;28.39;99899.36;102984;1262;99162;-61
2024/04/06 06:51:54;;;;;;;6.40;3.10;;;;;;;36.63;28.34;99901.16;102765;1267;99535;-62
2024/04/06 06:54:55;;;;;;;7.20;3.40;;;;;;;36.55;27.61;99903.50;102871;1262;99159;-62
2024/04/06 06:57:56;;;;;;;4.80;2.80;;;;;;;35.77;27.96;99904.77;102847;1262;105555;-62
2024/04/06 07:00:57;;;;;;;8.40;3.10;;;;;;;36.05;28.04;99903.80;102782;1266;100221;-62
2024/04/06 07:03:58;;;;;;;9.00;5.20;;;;;;;35.75;27.70;99902.16;102760;1262;99170;-62
2024/04/06 07:07:00;;;;;;;6.90;3.10;;;;;;;35.48;27.67;99906.54;102793;1262;99923;-61
2024/04/06 07:10:01;;;;;;;9.30;5.80;;;;;;;35.65;27.58;99910.84;102839;1262;99187;-61
2024/04/06 07:13:02;;;;;;;13.10;7.10;;;;;;;35.77;27.44;99919.45;102772;1262;105103;-63
2024/04/06 07:16:11;;;;;;;5.30;2.40;;;;;;;35.81;27.90;99925.54;102636;1264;100752;-62
2024/04/06 07:19:12;;;;;;;6.90;2.60;;;;;;;34.99;27.82;99929.97;102760;1262;99166;-62
2024/04/06 07:22:13;;;;;;;9.60;4.80;;;;;;;33.41;28.69;99935.45;103416;1262;99217;-63
2024/04/06 07:25:14;;;;;;;5.80;3.00;;;;;;;32.23;29.23;99940.21;102560;1262;100790;-63
2024/04/06 07:28:15;;;;;;;9.80;4.60;;;;;;;30.40;30.59;99940.55;102842;1261;113913;-62
2024/04/06 07:31:16;;;;;;;7.20;4.10;;;;;;;30.20;31.86;99945.69;102636;1262;107554;-62
2024/04/06 07:34:18;;;;;;;10.50;5.00;;;;;;;30.12;31.40;99950.02;102743;1265;100404;-62
2024/04/06 07:37:18;;;;;;;10.90;5.20;;;;;;;29.55;32.36;99947.25;102698;1262;107708;-61
2024/04/06 07:40:19;;;;;;;7.80;3.30;;;;;;;29.27;32.60;99953.84;102600;1262;99229;-62
2024/04/06 07:43:20;;;;;;;12.60;5.60;;;;;;;28.20;33.26;99958.30;102736;1264;112489;-62
2024/04/06 07:46:21;;;;;;;10.90;4.70;;;;;;;28.06;34.17;99956.77;102664;1262;106976;-62
2024/04/06 07:49:22;;;;;;;11.70;4.90;;;;;;;28.33;34.08;99952.91;102690;1262;99176;-63
2024/04/06 07:52:23;;;;;;;17.50;4.90;;;;;;;27.91;34.09;99952.17;102529;1262;107686;-62
2024/04/06 07:55:25;;;;;;;6.70;3.40;;;;;;;27.20;34.91;99949.13;102534;1262;99185;-63
2024/04/06 07:58:26;;;;;;;6.90;3.90;;;;;;;27.39;35.34;99957.07;102631;1262;112012;-62
2024/04/06 08:01:27;;;;;;;8.10;2.80;;;;;;;27.08;35.39;99957.34;102663;1266;106058;-62
2024/04/06 08:04:28;;;;;;;12.10;3.70;;;;;;;26.13;35.75;99960.46;102579;1262;99516;-63
2024/04/06 08:07:30;;;;;;;6.60;2.60;;;;;;;25.58;36.95;99968.59;102678;1262;108012;-60
2024/04/06 08:10:31;;;;;;;7.00;2.90;;;;;;;25.32;37.67;99972.13;102730;1261;99165;-60
2024/04/06 08:13:32;;;;;;;8.70;3.10;;;;;;;25.62;37.68;99974.31;102684;1262;112299;-60
2024/04/06 08:16:34;;;;;;;8.60;3.40;;;;;;;25.73;38.17;99973.77;102631;1262;107889;-81
2024/04/06 08:19:34;;;;;;;9.90;3.60;;;;;;;26.74;37.44;99976.79;102678;1262;99133;-66
2024/04/06 08:22:35;;;;;;;6.40;3.20;;;;;;;27.48;36.75;99974.02;102780;1267;108435;-66
2024/04/06 08:25:36;;;;;;;10.00;5.00;;;;;;;27.88;36.09;99976.98;102878;1262;99175;-64
2024/04/06 08:28:37;;;;;;;8.50;3.80;;;;;;;28.37;35.50;99973.02;102833;1262;113002;-66
2024/04/06 08:31:39;;;;;;;15.50;4.90;;;;;;;28.82;34.68;99967.97;102955;1262;107541;-73
2024/04/06 08:34:42;;;;;;;12.90;7.40;;;;;;;28.87;34.54;99968.23;102866;1262;99234;-66
2024/04/06 08:37:43;;;;;;;9.40;3.80;;;;;;;28.81;34.56;99971.48;102772;1262;108456;-65
2024/04/06 08:40:48;;;;;;;8.20;3.80;;;;;;;29.03;34.62;99971.94;102842;1262;99164;-62
2024/04/06 08:43:54;;;;;;;11.00;5.00;;;;;;;28.93;34.18;99974.06;102793;1262;113531;-72
2024/04/06 08:46:55;;;;;;;13.30;7.00;;;;;;;28.84;34.31;99973.30;102808;1262;108147;-70
2024/04/06 08:49:57;;;;;;;15.00;3.40;;;;;;;28.74;34.22;99986.45;102857;1262;99068;-71
2024/04/06 08:52:58;;;;;;;5.40;2.50;;;;;;;28.37;34.03;99988.21;102829;1266;107855;-66
2024/04/06 08:56:01;;;;;;;7.10;3.00;;;;;;;28.23;34.53;99990.83;102871;1262;99197;-67
2024/04/06 08:59:06;;;;;;;9.00;4.00;;;;;;;28.05;34.19;99994.77;102785;1262;113826;-66
2024/04/06 09:02:07;;;;;;;8.90;3.10;;;;;;;27.55;34.91;99990.89;102712;1267;107242;-67
2024/04/06 09:05:08;;;;;;;7.30;3.00;;;;;;;26.95;35.59;99986.95;102658;1262;99194;-68
2024/04/06 09:08:09;;;;;;;10.70;3.80;;;;;;;26.81;36.16;99988.22;102644;1263;107598;-66
2024/04/06 09:11:13;;;;;;;15.10;6.90;;;;;;;26.45;36.30;99983.05;102678;1262;99940;-67
2024/04/06 09:14:14;;;;;;;9.00;3.80;;;;;;;25.97;36.63;99983.28;102658;1266;113173;-66
2024/04/06 09:17:18;;;;;;;7.30;2.60;;;;;;;25.30;37.12;99985.60;102645;1262;107302;-71
2024/04/06 09:20:19;;;;;;;9.20;2.80;;;;;;;25.18;37.86;99979.84;102640;1261;99727;-69
2024/04/06 09:23:20;;;;;;;9.40;2.60;;;;;;;25.26;38.18;99977.66;102655;1266;108341;-66
2024/04/06 09:26:30;;;;;;;9.50;2.80;;;;;;;25.97;38.47;99980.95;102803;1262;99080;-66
2024/04/06 09:29:31;;;;;;;9.00;2.80;;;;;;;26.92;37.24;99977.21;102817;1264;113540;-66
2024/04/06 09:32:34;;;;;;;10.20;2.80;;;;;;;26.90;36.29;99978.53;102871;1265;107400;-67
2024/04/06 09:35:36;;;;;;;7.50;2.70;;;;;;;26.74;36.64;99982.69;102796;1262;99083;-66
2024/04/06 09:38:38;;;;;;;7.50;2.70;;;;;;;26.41;36.84;99989.67;102747;1262;108516;-66
2024/04/06 09:41:41;;;;;;;9.90;3.40;;;;;;;25.99;37.21;99990.75;102908;1262;99208;-66
2024/04/06 09:44:43;;;;;;;10.30;3.10;;;;;;;25.61;37.85;99989.54;102998;1262;113807;-66
2024/04/06 09:47:45;;;;;;;9.50;3.10;;;;;;;25.87;38.24;99993.23;102783;1262;106557;-67
2024/04/06 09:50:47;;;;;;;11.50;3.30;;;;;;;26.01;37.55;99986.96;102807;1262;99178;-66
2024/04/06 09:53:49;;;;;;;7.00;2.60;;;;;;;26.25;37.33;99987.39;102848;1264;108734;-67
2024/04/06 09:56:50;;;;;;;9.80;3.00;;;;;;;26.56;37.20;99987.61;102641;1262;99215;-67
2024/04/06 09:59:52;;;;;;;8.50;2.60;;;;;;;27.17;36.26;99985.55;102759;1262;113108;-65
2024/04/06 10:02:53;;;;;;;8.30;2.60;;;;;;;27.41;36.08;99983.12;102851;1262;108694;-66
2024/04/06 10:05:54;;;;;;;10.20;3.00;;;;;;;27.72;35.64;99988.59;102818;1266;99264;-67
2024/04/06 10:08:56;;;;;;;9.90;3.30;;;;;;;27.27;35.46;99989.27;102802;1262;108315;-67
2024/04/06 10:12:06;;;;;;;9.50;3.30;;;;;;;27.21;35.97;99996.74;102820;1262;99181;-67
2024/04/06 10:15:10;;;;;;;9.40;2.60;;;;;;;26.98;35.49;99999.59;102682;1262;138189;-67
2024/04/06 10:18:14;;;;;;;9.20;2.90;;;;;;;26.44;35.94;100001.27;102758;1262;106291;-68
2024/04/06 10:21:21;;;;;;;9.40;2.70;;;;;;;26.03;36.21;99998.56;102742;1262;139375;-66
2024/04/06 10:24:24;;;;;;;9.00;2.70;;;;;;;26.07;36.26;99999.07;102715;1262;108237;-66
2024/04/06 10:27:24;;;;;;;9.10;2.80;;;;;;;25.98;35.73;99995.88;102693;1262;139995;-67
2024/04/06 10:30:26;;;;;;;8.80;2.90;;;;;;;25.75;36.59;99994.71;102824;1261;113071;-67
2024/04/06 10:33:27;;;;;;;8.80;2.70;;;;;;;25.43;36.23;99994.13;102656;1262;138608;-66
2024/04/06 10:36:28;;;;;;;12.30;3.60;;;;;;;25.15;36.62;100002.39;102839;1262;99183;-66
2024/04/06 10:39:29;;;;;;;9.10;3.20;;;;;;;24.81;37.51;100005.73;102890;1262;138388;-74
2024/04/06 10:42:34;;;;;;;8.90;2.70;;;;;;;24.88;37.80;99998.05;102621;1262;99284;-73
2024/04/06 10:45:35;;;;;;;9.70;2.80;;;;;;;25.08;37.56;99999.59;102591;1262;137953;-75
2024/04/06 10:48:36;;;;;;;7.90;2.60;;;;;;;24.97;37.59;100003.95;102673;1262;108071;-73
2024/04/06 10:51:38;;;;;;;6.20;2.30;;;;;;;24.63;37.67;100002.25;102585;1266;139881;-74
2024/04/06 10:54:39;;;;;;;8.90;2.70;;;;;;;24.60;37.45;100004.63;102682;1262;107423;-74
2024/04/06 10:57:40;;;;;;;12.40;2.90;;;;;;;24.55;37.64;100006.16;102564;1266;138355;-75
2024/04/06 11:00:41;;;;;;;7.10;2.30;;;;;;;24.48;37.90;100008.29;102773;1266;113780;-75
2024/04/06 11:03:42;;;;;;;7.10;2.30;;;;;;;24.17;38.09;100003.55;102567;1262;138405;-74
2024/04/06 11:06:43;;;;;;;12.60;4.90;;;;;;;23.80;38.82;100016.48;102774;1266;99182;-68
2024/04/06 11:09:37;;;;;;;14.00;6.30;;;;;;;23.40;39.06;100020.12;102908;1261;138722;-68
2024/04/06 11:12:38;;;;;;;19.50;12.30;;;;;;;23.42;39.10;100022.54;102737;1267;99161;-67
2024/04/06 11:15:39;;;;;;;17.50;6.80;;;;;;;23.48;39.57;100015.09;102635;1262;138749;-68
2024/04/06 11:18:49;;;;;;;13.70;9.80;;;;;;;23.59;39.51;100022.69;103051;1261;106808;-69
2024/04/06 11:21:43;;;;;;;12.40;6.00;;;;;;;23.57;39.40;100017.04;102684;1267;138449;-68
2024/04/06 11:24:44;;;;;;;11.00;6.60;;;;;;;23.45;39.73;100015.36;102720;1262;107583;-67
2024/04/06 11:27:45;;;;;;;12.80;6.50;;;;;;;23.35;39.47;100021.04;102551;1262;138963;-67
2024/04/06 11:30:46;;;;;;;13.60;4.60;;;;;;;23.20;39.64;100021.70;102763;1262;112325;-66
2024/04/06 11:33:47;;;;;;;13.30;4.60;;;;;;;23.16;40.46;100025.29;102823;1262;138757;-66
2024/04/06 11:36:48;;;;;;;14.20;4.20;;;;;;;23.21;40.07;100026.91;103268;1261;99076;-66
2024/04/06 11:39:50;;;;;;;10.30;3.90;;;;;;;23.10;40.05;100029.19;102706;1262;138340;-70
2024/04/06 11:42:50;;;;;;;9.40;2.30;;;;;;;22.65;40.40;100038.16;102750;1262;99955;-71
2024/04/06 11:45:51;;;;;;;13.10;4.10;;;;;;;22.50;40.71;100034.16;102659;1264;138132;-71
2024/04/06 11:48:52;;;;;;;13.80;3.60;;;;;;;22.38;41.11;100034.98;102778;1265;108816;-70
2024/04/06 11:51:53;;;;;;;8.70;3.70;;;;;;;22.40;41.50;100033.58;102912;1262;138508;-71
2024/04/06 11:54:54;;;;;;;11.60;4.70;;;;;;;22.53;41.33;100030.54;102735;1265;109416;-70
2024/04/06 11:57:55;;;;;;;9.10;3.40;;;;;;;22.55;41.47;100031.21;102668;1262;139902;-64
2024/04/06 12:00:56;;;;;;;11.20;4.60;;;;;;;22.62;41.71;100032.77;102843;1262;113075;-73
2024/04/06 12:03:58;;;;;;;10.10;5.50;;;;;;;22.56;42.05;100027.97;102726;1262;138392;-71
2024/04/06 12:07:00;;;;;;;8.70;3.20;;;;;;;22.50;41.61;100033.45;102806;1262;99229;-73
2024/04/06 12:10:00;;;;;;;9.30;3.10;;;;;;;22.47;41.43;100033.00;102743;1262;138893;-73
2024/04/06 12:13:01;;;;;;;7.90;3.00;;;;;;;22.44;41.55;100024.75;102838;1262;99047;-72
2024/04/06 12:16:03;;;;;;;10.40;3.20;;;;;;;22.28;41.71;100029.11;102782;1262;138181;-71
2024/04/06 12:19:03;;;;;;;10.90;3.20;;;;;;;22.18;41.99;100031.34;102818;1267;108030;-71
2024/04/06 12:22:04;;;;;;;8.60;3.30;;;;;;;22.27;41.90;100037.54;102805;1262;138555;-71
2024/04/06 12:25:06;;;;;;;8.60;2.90;;;;;;;22.34;41.79;100030.70;102839;1262;108279;-70
2024/04/06 12:28:06;;;;;;;10.00;3.20;;;;;;;22.27;41.60;100035.88;102647;1262;140020;-70
2024/04/06 12:31:07;;;;;;;9.50;2.90;;;;;;;21.95;41.66;100044.61;102767;1264;113449;-69
2024/04/06 12:34:08;;;;;;;11.00;3.20;;;;;;;21.63;42.35;100047.80;102609;1262;138208;-69
2024/04/06 12:37:10;;;;;;;9.30;2.50;;;;;;;21.49;42.58;100041.85;102898;1266;99067;-69
2024/04/06 12:40:10;;;;;;;8.80;2.80;;;;;;;21.42;42.67;100055.16;102877;1261;138326;-76
2024/04/06 12:43:11;;;;;;;11.00;2.40;;;;;;;21.14;42.75;100052.74;102740;1262;99770;-73
2024/04/06 12:46:13;;;;;;;9.80;2.50;;;;;;;20.94;42.96;100060.35;102750;1266;138917;-72
2024/04/06 12:49:13;;;;;;;9.80;2.70;;;;;;;20.72;43.17;100053.05;102741;1263;108448;-74
2024/04/06 12:52:14;;;;;;;10.30;2.80;;;;;;;20.45;43.08;100059.84;102591;1262;138392;-73
2024/04/06 12:55:15;;;;;;;9.40;2.80;;;;;;;20.17;43.49;100066.15;103089;1266;108019;-73
2024/04/06 12:58:16;;;;;;;10.30;3.10;;;;;;;19.96;44.23;100065.49;102660;1262;138420;-74
2024/04/06 13:01:18;;;;;;;9.70;2.50;;;;;;;19.80;44.98;100064.86;102782;1262;112717;-74
2024/04/06 13:04:18;;;;;;;10.20;2.90;;;;;;;19.86;45.51;100065.80;102583;1262;138237;-74
2024/04/06 13:07:19;;;;;;;9.90;2.80;;;;;;;19.95;45.53;100074.23;102791;1262;99068;-75
2024/04/06 13:10:21;;;;;;;8.90;2.50;;;;;;;19.93;45.55;100075.61;102642;1262;138343;-78
2024/04/06 13:13:22;;;;;;;8.80;2.60;;;;;;;19.83;44.50;100068.75;102740;1262;99256;-79
2024/04/06 13:16:22;;;;;;;7.90;2.50;;;;;;;19.71;44.41;100070.45;102720;1262;138012;-77
2024/04/06 13:19:25;;;;;;;8.80;2.40;;;;;;;19.68;45.47;100081.48;102807;1263;108985;-62
2024/04/06 13:22:27;;;;;;;5.90;2.00;;;;;;;19.82;45.92;100079.06;102662;1262;138241;-63
2024/04/06 13:25:27;;;;;;;7.00;2.60;;;;;;;20.01;45.62;100083.46;102833;1262;108664;-61
2024/04/06 13:28:28;;;;;;;7.20;2.40;;;;;;;20.20;45.03;100080.97;102709;1267;138187;-61
2024/04/06 13:31:29;;;;;;;7.50;2.40;;;;;;;20.37;44.83;100082.36;102828;1262;112465;-61
2024/04/06 13:34:30;;;;;;;5.20;2.10;;;;;;;20.50;44.41;100078.02;103009;1266;138674;-61